LTAD/ANK METAR and TAF weather

Enter ICAO airport designator
Station Type Date Time Source
LTAD METAR 2018/12/15 00:50 UTC NOAA

LTAD 150050Z VRB01KT 3400 BR BKN030 OVC080 03/02 Q1025 NOSIG RMK RWY29 00000KT


Station Type Date Time Source
LTAD Decoded METAR 2018/12/15 00:50 UTC NOAA

Ankara / Etimesgut, Turkey (LTAD) 39-57N 032-41E 806M
Dec 14, 2018 - 07:50 PM EST / 2018.12.15 0050 UTC
Wind: Variable at 1 MPH (1 KT):0
Visibility: 2 mile(s):0
Sky conditions: overcast
Weather: mist
Temperature: 37 F (3 C)
Dew Point: 35 F (2 C)
Relative Humidity: 93%
Pressure (altimeter): 30.27 in. Hg (1025 hPa)
ob: LTAD 150050Z VRB01KT 3400 BR BKN030 OVC080 03/02 Q1025 NOSIG RMK RWY29 00000KT
cycle: 1

Station Type Date Time Source
LTAD TAF UTC NOAA

Error!


Example: see airport list